Time;durP1;ratioP1;P1;durP2;ratioP2;P2;SDS_P1;SDS_P2;PMS_P1;PMS_P2;Temp;Humidity;BMP_temperature;BMP_pressure;BME280_temperature;BME280_humidity;BME280_pressure;Samples;Min_cycle;Max_cycle;Signal;HPM_P1;HPM_P2
2023/11/29 00:01:05;;;;;;;1.73;1.63;;;;;;;21.35;49.54;96527.84;4980511;28;20234;-25
2023/11/29 00:03:32;;;;;;;1.60;1.50;;;;;;;21.35;49.50;96530.41;4980511;28;20331;-25
2023/11/29 00:05:59;;;;;;;1.70;1.60;;;;;;;21.35;49.46;96532.97;4982124;28;20624;-25
2023/11/29 00:08:26;;;;;;;1.70;1.60;;;;;;;21.35;49.42;96532.97;4981240;28;20402;-25
2023/11/29 00:10:52;;;;;;;1.60;1.50;;;;;;;21.36;49.69;96534.69;4989321;28;20227;-25
2023/11/29 00:13:20;;;;;;;1.47;1.37;;;;;;;21.35;49.58;96532.97;4992661;28;20737;-25
2023/11/29 00:15:47;;;;;;;1.80;1.70;;;;;;;21.36;49.74;96535.53;4986769;28;20696;-25
2023/11/29 00:18:14;;;;;;;1.60;1.50;;;;;;;21.36;49.44;96529.56;4974662;28;20571;-25
2023/11/29 00:20:42;;;;;;;1.70;1.60;;;;;;;21.35;49.42;96525.31;4975063;28;20235;-25
2023/11/29 00:23:08;;;;;;;1.63;1.53;;;;;;;21.36;49.54;96529.56;4990496;28;20202;-27
2023/11/29 00:25:35;;;;;;;1.57;1.47;;;;;;;21.35;49.36;96528.69;4989525;28;20215;-25
2023/11/29 00:28:01;;;;;;;1.60;1.50;;;;;;;21.35;49.33;96527.84;4983663;28;20227;-25
2023/11/29 00:30:29;;;;;;;1.50;1.40;;;;;;;21.35;49.36;96528.69;4979570;28;20227;-25
2023/11/29 00:32:56;;;;;;;1.97;1.77;;;;;;;21.36;49.59;96529.56;4984764;28;20235;-25
2023/11/29 00:35:23;;;;;;;1.73;1.63;;;;;;;21.36;49.54;96529.56;4983614;28;20214;-25
2023/11/29 00:37:49;;;;;;;1.80;1.70;;;;;;;21.35;49.47;96536.38;4989097;28;20700;-25
2023/11/29 00:40:16;;;;;;;1.73;1.63;;;;;;;21.35;49.56;96538.91;4980987;28;20227;-25
2023/11/29 00:42:43;;;;;;;1.67;1.57;;;;;;;21.36;49.55;96537.22;4977678;28;20199;-25
2023/11/29 00:45:10;;;;;;;1.60;1.50;;;;;;;21.36;49.36;96533.00;4987610;28;20213;-25
2023/11/29 00:47:36;;;;;;;1.60;1.50;;;;;;;21.36;49.51;96538.09;4987330;28;20297;-25
2023/11/29 00:50:03;;;;;;;1.63;1.53;;;;;;;21.35;49.50;96541.47;4974749;28;20235;-25
2023/11/29 00:52:30;;;;;;;1.67;1.57;;;;;;;21.35;49.58;96532.97;4978632;28;20208;-26
2023/11/29 00:54:57;;;;;;;1.70;1.60;;;;;;;21.36;49.43;96535.53;4982080;28;20203;-25
2023/11/29 00:57:23;;;;;;;1.70;1.60;;;;;;;21.36;49.50;96527.00;4984809;28;20667;-25
2023/11/29 00:59:50;;;;;;;1.60;1.50;;;;;;;21.36;49.40;96522.78;4974070;28;20606;-25
2023/11/29 01:02:16;;;;;;;3.17;1.60;;;;;;;21.36;49.45;96522.78;4983069;28;20238;-25
2023/11/29 01:04:43;;;;;;;1.77;1.67;;;;;;;21.35;49.38;96523.59;4973636;28;20215;-25
2023/11/29 01:07:10;;;;;;;1.63;1.53;;;;;;;21.35;49.51;96526.13;4978177;28;20238;-29
2023/11/29 01:09:36;;;;;;;2.10;1.70;;;;;;;21.35;49.60;96531.25;4984564;28;20678;-25
2023/11/29 01:12:04;;;;;;;1.60;1.50;;;;;;;21.36;49.52;96530.44;4978084;28;20632;-25
2023/11/29 01:14:30;;;;;;;1.73;1.63;;;;;;;21.37;49.40;96526.16;4979846;28;20667;-25
2023/11/29 01:16:57;;;;;;;1.70;1.60;;;;;;;21.35;49.42;96526.13;4981570;28;20258;-25
2023/11/29 01:19:23;;;;;;;1.70;1.60;;;;;;;21.36;49.76;96521.91;4980202;28;20232;-25
2023/11/29 01:21:50;;;;;;;1.70;1.60;;;;;;;21.35;49.51;96517.63;4980394;28;20244;-25
2023/11/29 01:24:17;;;;;;;1.43;1.33;;;;;;;21.35;49.52;96512.53;4979417;28;20209;-25
2023/11/29 01:26:43;;;;;;;1.70;1.60;;;;;;;21.36;49.21;96527.00;4978627;28;20211;-27
2023/11/29 01:29:10;;;;;;;2.03;1.80;;;;;;;21.35;49.53;96523.59;4982564;28;20223;-25
2023/11/29 01:31:37;;;;;;;1.70;1.60;;;;;;;21.35;49.64;96521.03;4984885;28;20237;-25
2023/11/29 01:34:03;;;;;;;2.83;1.53;;;;;;;21.35;49.71;96523.59;4981186;28;20211;-26
2023/11/29 01:36:30;;;;;;;1.70;1.60;;;;;;;21.35;49.61;96520.19;4984067;28;20213;-25
2023/11/29 01:38:57;;;;;;;1.80;1.70;;;;;;;21.35;49.38;96520.19;4988676;28;20249;-26
2023/11/29 01:41:24;;;;;;;1.60;1.50;;;;;;;21.36;49.39;96519.34;4986478;28;20227;-25
2023/11/29 01:43:50;;;;;;;2.00;1.80;;;;;;;21.35;49.55;96520.19;4989599;28;20211;-25
2023/11/29 01:46:17;;;;;;;1.83;1.70;;;;;;;21.36;49.63;96516.78;4986885;28;20285;-25
2023/11/29 01:48:43;;;;;;;1.57;1.47;;;;;;;21.34;49.42;96514.22;4993117;28;20234;-25
2023/11/29 01:51:10;;;;;;;1.60;1.50;;;;;;;21.29;49.41;96515.00;4988054;28;20643;-25
2023/11/29 01:53:37;;;;;;;2.00;1.83;;;;;;;21.35;49.75;96520.19;4994255;28;20253;-25
2023/11/29 01:56:06;;;;;;;1.77;1.67;;;;;;;21.34;49.28;96521.88;4987303;28;20208;-25
2023/11/29 01:58:33;;;;;;;1.60;1.50;;;;;;;21.36;49.72;96527.00;4983251;28;20203;-25
2023/11/29 02:01:00;;;;;;;1.43;1.33;;;;;;;21.36;49.55;96527.00;4991217;28;20262;-25
2023/11/29 02:03:27;;;;;;;1.80;1.70;;;;;;;21.37;49.83;96523.59;4991532;28;20203;-25
2023/11/29 02:05:54;;;;;;;2.13;1.57;;;;;;;21.30;49.72;96512.47;4990282;28;20206;-25
2023/11/29 02:08:21;;;;;;;1.57;1.47;;;;;;;21.30;49.69;96501.38;4991082;28;20222;-25
2023/11/29 02:10:50;;;;;;;1.60;1.50;;;;;;;21.36;49.43;96514.22;5000569;28;20234;-25
2023/11/29 02:13:17;;;;;;;1.60;1.50;;;;;;;21.36;49.55;96515.09;4989098;28;20572;-25
2023/11/29 02:15:44;;;;;;;1.70;1.60;;;;;;;21.39;49.65;96514.28;4987689;28;20211;-25
2023/11/29 02:18:10;;;;;;;1.60;1.50;;;;;;;21.36;49.55;96522.78;4991892;28;20689;-25
2023/11/29 02:20:37;;;;;;;1.70;1.60;;;;;;;21.36;49.55;96519.34;4991980;28;20230;-25
2023/11/29 02:23:16;;;;;;;1.60;1.50;;;;;;;21.36;49.67;96522.78;4975127;28;20202;-25
2023/11/29 02:25:42;;;;;;;1.60;1.50;;;;;;;21.36;49.32;96520.22;4982892;28;20720;-25
2023/11/29 02:28:09;;;;;;;1.70;1.60;;;;;;;21.36;49.28;96515.09;4986520;28;20259;-27
2023/11/29 02:30:35;;;;;;;1.80;1.70;;;;;;;21.36;49.38;96517.66;4983704;28;20318;-26
2023/11/29 02:33:02;;;;;;;1.60;1.50;;;;;;;21.36;49.36;96525.31;4992712;28;20231;-25
2023/11/29 02:35:28;;;;;;;1.60;1.50;;;;;;;21.36;49.60;96521.91;4990227;28;20576;-25
2023/11/29 02:37:55;;;;;;;1.70;1.60;;;;;;;21.36;49.52;96524.47;4989279;28;20210;-26
2023/11/29 02:40:24;;;;;;;1.57;1.47;;;;;;;21.36;49.53;96519.34;4983070;28;20460;-25
2023/11/29 02:42:50;;;;;;;1.70;1.60;;;;;;;21.35;49.53;96517.63;4989956;28;20226;-26
2023/11/29 02:45:17;;;;;;;1.50;1.40;;;;;;;21.35;49.58;96522.75;4987370;28;20210;-25
2023/11/29 02:47:44;;;;;;;1.53;1.43;;;;;;;21.34;49.42;96516.75;4988953;28;20203;-25
2023/11/29 02:50:10;;;;;;;1.50;1.40;;;;;;;21.35;49.32;96518.47;4989799;28;20219;-25
2023/11/29 02:52:37;;;;;;;1.57;1.47;;;;;;;21.35;49.36;96515.09;4979201;28;20214;-25
2023/11/29 02:55:05;;;;;;;1.77;1.67;;;;;;;21.34;49.54;96513.34;4984401;28;20694;-25
2023/11/29 02:57:31;;;;;;;1.60;1.50;;;;;;;21.34;49.11;96511.66;4987918;28;20605;-25
2023/11/29 02:59:58;;;;;;;1.50;1.40;;;;;;;20.73;49.20;96411.09;4988825;28;20246;-25
2023/11/29 03:02:24;;;;;;;1.73;1.50;;;;;;;21.34;49.08;96515.91;4987676;28;20204;-25
2023/11/29 03:04:51;;;;;;;1.67;1.57;;;;;;;21.35;49.37;96517.63;4984221;28;20290;-25
2023/11/29 03:07:18;;;;;;;1.63;1.53;;;;;;;21.35;49.46;96517.63;4993991;28;20231;-27
2023/11/29 03:09:44;;;;;;;1.60;1.50;;;;;;;21.34;49.20;96506.53;4983719;28;20242;-25
2023/11/29 03:12:11;;;;;;;1.47;1.37;;;;;;;21.35;49.11;96509.97;4985976;28;20737;-25
2023/11/29 03:14:37;;;;;;;1.53;1.43;;;;;;;21.35;49.15;96504.84;4990111;28;20623;-25
2023/11/29 03:17:04;;;;;;;1.70;1.60;;;;;;;21.34;49.43;96516.75;4993259;28;20210;-25
2023/11/29 03:19:31;;;;;;;1.50;1.40;;;;;;;21.34;49.36;96519.31;4993822;28;20249;-25
2023/11/29 03:21:57;;;;;;;1.60;1.50;;;;;;;21.26;49.17;96502.16;4993391;23;20592;-26
2023/11/29 03:24:24;;;;;;;1.50;1.40;;;;;;;21.35;49.53;96522.75;4973512;28;20671;-26
2023/11/29 03:26:50;;;;;;;1.40;1.30;;;;;;;21.35;49.51;96525.31;4973270;28;20238;-26
2023/11/29 03:29:17;;;;;;;1.47;1.37;;;;;;;21.35;49.22;96522.75;4969193;28;20221;-26
2023/11/29 03:31:43;;;;;;;1.50;1.40;;;;;;;21.34;49.28;96516.75;4952020;28;20216;-25
2023/11/29 03:34:10;;;;;;;1.60;1.50;;;;;;;21.36;49.28;96521.91;4948987;28;20208;-25
2023/11/29 03:36:37;;;;;;;1.77;1.67;;;;;;;21.36;49.11;96521.91;4954402;28;20718;-25
2023/11/29 03:39:04;;;;;;;1.60;1.50;;;;;;;21.36;49.42;96519.34;4954289;28;20695;-26
2023/11/29 03:41:31;;;;;;;1.60;1.50;;;;;;;21.35;49.34;96518.47;4948701;28;20228;-25
2023/11/29 03:43:58;;;;;;;1.60;1.50;;;;;;;21.35;49.29;96522.75;4943572;28;20205;-26
2023/11/29 03:46:25;;;;;;;1.70;1.60;;;;;;;21.34;49.27;96519.31;4952548;28;20259;-26
2023/11/29 03:48:51;;;;;;;1.53;1.43;;;;;;;21.34;49.35;96509.09;4949923;28;20279;-25
2023/11/29 03:51:18;;;;;;;1.50;1.40;;;;;;;21.34;49.33;96516.75;4953975;28;20734;-26
2023/11/29 03:53:45;;;;;;;1.57;1.47;;;;;;;21.35;49.37;96520.19;4950976;28;20208;-25
2023/11/29 03:56:11;;;;;;;1.50;1.40;;;;;;;21.35;49.11;96515.09;4946220;28;20208;-25
2023/11/29 03:58:38;;;;;;;1.50;1.40;;;;;;;21.34;49.35;96515.91;4946578;29;20205;-25
2023/11/29 04:01:05;;;;;;;1.50;1.40;;;;;;;21.35;49.12;96515.09;4943335;28;20738;-26
2023/11/29 04:03:31;;;;;;;1.23;1.20;;;;;;;21.34;49.28;96513.34;4945989;28;20292;-25
2023/11/29 04:05:58;;;;;;;1.57;1.47;;;;;;;21.34;49.22;96513.34;4952938;28;20210;-25
2023/11/29 04:08:24;;;;;;;1.50;1.40;;;;;;;21.34;49.19;96510.78;4945782;28;20259;-26
2023/11/29 04:10:51;;;;;;;1.53;1.43;;;;;;;21.34;49.25;96503.13;4951123;28;20239;-26
2023/11/29 04:13:18;;;;;;;1.60;1.50;;;;;;;21.34;49.13;96516.75;4949281;28;20212;-25
2023/11/29 04:15:44;;;;;;;1.50;1.40;;;;;;;21.34;49.38;96498.88;4953623;28;20204;-25
2023/11/29 04:18:11;;;;;;;1.70;1.60;;;;;;;21.34;49.10;96501.44;4950845;28;20204;-25
2023/11/29 04:20:37;;;;;;;1.30;1.30;;;;;;;21.34;49.31;96493.75;4946587;28;20259;-24
2023/11/29 04:23:04;;;;;;;1.40;1.30;;;;;;;21.34;49.20;96491.22;4950131;28;20213;-26
2023/11/29 04:25:31;;;;;;;1.50;1.40;;;;;;;21.34;49.41;96483.53;4953508;28;20212;-25
2023/11/29 04:27:57;;;;;;;1.40;1.30;;;;;;;21.35;49.13;96485.25;4951589;28;20205;-25
2023/11/29 04:30:26;;;;;;;1.50;1.40;;;;;;;21.35;49.16;96485.25;4952187;28;20272;-25
2023/11/29 04:32:53;;;;;;;1.60;1.50;;;;;;;21.34;49.25;96491.22;4946647;28;20201;-25
2023/11/29 04:35:20;;;;;;;1.50;1.40;;;;;;;21.35;49.24;96490.34;4949133;28;20589;-25
2023/11/29 04:37:46;;;;;;;1.53;1.43;;;;;;;21.35;49.04;96485.25;4947534;28;20723;-25
2023/11/29 04:40:13;;;;;;;1.40;1.33;;;;;;;21.35;49.03;96492.91;4952498;28;20205;-25
2023/11/29 04:42:40;;;;;;;1.60;1.50;;;;;;;21.35;49.30;96492.91;4952755;28;20626;-25
2023/11/29 04:45:06;;;;;;;3.33;1.50;;;;;;;21.35;49.10;96494.63;4949914;28;20235;-25
2023/11/29 04:47:33;;;;;;;1.50;1.40;;;;;;;21.35;49.16;96500.59;4951644;29;20258;-25
2023/11/29 04:50:00;;;;;;;1.80;1.70;;;;;;;21.34;49.17;96498.88;4950940;28;20224;-26
2023/11/29 04:52:28;;;;;;;1.47;1.37;;;;;;;21.35;49.25;96502.31;4952202;29;20215;-26
2023/11/29 04:54:54;;;;;;;1.80;1.70;;;;;;;21.34;49.25;96496.31;4952918;28;20207;-26
2023/11/29 04:57:21;;;;;;;1.60;1.50;;;;;;;21.35;49.30;96497.19;4948373;29;20575;-25
2023/11/29 04:59:48;;;;;;;1.60;1.50;;;;;;;21.35;49.01;96492.06;4951024;28;20199;-24
2023/11/29 05:02:14;;;;;;;3.67;1.43;;;;;;;21.35;49.30;96492.91;4950695;28;20311;-25
2023/11/29 05:04:41;;;;;;;1.40;1.30;;;;;;;21.34;49.38;96486.09;4951731;28;20204;-25
2023/11/29 05:07:08;;;;;;;1.60;1.50;;;;;;;21.35;49.36;96487.81;4949725;28;20260;-25
2023/11/29 05:09:35;;;;;;;1.60;1.50;;;;;;;21.36;49.17;96489.53;4951670;28;20225;-26
2023/11/29 05:12:02;;;;;;;1.50;1.40;;;;;;;21.35;49.21;96492.91;4952743;28;20224;-26
2023/11/29 05:14:29;;;;;;;1.50;1.40;;;;;;;21.35;49.21;96492.91;4951615;28;20205;-25
2023/11/29 05:16:55;;;;;;;1.43;1.33;;;;;;;21.35;49.27;96486.97;4950941;28;20200;-25
2023/11/29 05:19:22;;;;;;;1.50;1.40;;;;;;;21.35;49.10;96492.06;4952096;28;20204;-25
2023/11/29 05:21:49;;;;;;;1.43;1.33;;;;;;;21.31;49.39;96490.28;4948283;28;20622;-26
2023/11/29 05:24:16;;;;;;;1.60;1.50;;;;;;;21.35;49.19;96497.19;4951944;28;20204;-24
2023/11/29 05:26:42;;;;;;;1.50;1.40;;;;;;;21.35;49.38;96499.75;4948413;28;20197;-25
2023/11/29 05:29:09;;;;;;;1.60;1.50;;;;;;;21.36;49.20;96502.31;4952042;29;20216;-26
2023/11/29 05:31:36;;;;;;;1.50;1.40;;;;;;;21.36;49.15;96499.75;4950801;29;20224;-25
2023/11/29 05:34:02;;;;;;;1.50;1.40;;;;;;;21.35;49.30;96505.69;4945316;29;20259;-26
2023/11/29 05:36:29;;;;;;;1.40;1.30;;;;;;;21.34;49.29;96496.31;4946489;28;20294;-25
2023/11/29 05:38:56;;;;;;;1.60;1.50;;;;;;;21.35;49.12;96495.47;4946975;29;20243;-26
2023/11/29 05:41:22;;;;;;;1.50;1.40;;;;;;;21.28;49.17;96477.47;4949303;29;20649;-27
2023/11/29 05:43:49;;;;;;;1.43;1.33;;;;;;;21.34;49.14;96488.66;4941964;29;20200;-24
2023/11/29 05:46:16;;;;;;;1.60;1.50;;;;;;;21.35;49.20;96495.47;4950786;29;20200;-25
2023/11/29 05:48:42;;;;;;;1.53;1.43;;;;;;;21.35;49.37;96492.91;4952761;29;20197;-25
2023/11/29 05:51:11;;;;;;;1.67;1.57;;;;;;;21.36;48.68;96498.91;4944909;29;20216;-26
2023/11/29 05:53:38;;;;;;;2.80;2.60;;;;;;;21.34;46.36;96498.88;4948764;28;20571;-25
2023/11/29 05:56:05;;;;;;;3.43;3.20;;;;;;;21.32;44.51;96499.72;4953109;28;20200;-25
2023/11/29 05:58:31;;;;;;;4.10;3.80;;;;;;;21.30;41.83;96509.03;4952819;28;20224;-26
2023/11/29 06:00:58;;;;;;;4.77;4.37;;;;;;;21.27;40.98;96503.88;4951636;28;20305;-25
2023/11/29 06:03:25;;;;;;;4.10;3.67;;;;;;;21.26;42.75;96502.16;4952711;29;20263;-25
2023/11/29 06:05:52;;;;;;;6.70;4.17;;;;;;;21.25;41.91;96505.53;4952619;28;20291;-26
2023/11/29 06:08:19;;;;;;;4.23;3.93;;;;;;;21.23;42.23;96504.69;4952402;28;20271;-25
2023/11/29 06:10:46;;;;;;;4.00;3.70;;;;;;;21.23;42.38;96504.69;4952196;28;20224;-25
2023/11/29 06:13:13;;;;;;;4.57;3.93;;;;;;;21.22;42.46;96502.94;4951985;28;20264;-26
2023/11/29 06:15:42;;;;;;;4.10;3.80;;;;;;;21.22;42.71;96505.50;4952405;28;20256;-23
2023/11/29 06:18:10;;;;;;;3.90;3.60;;;;;;;21.22;42.92;96508.06;4952579;28;20323;-25
2023/11/29 06:20:38;;;;;;;4.20;3.90;;;;;;;21.22;43.20;96501.25;4951601;28;20232;-25
2023/11/29 06:23:07;;;;;;;5.57;4.00;;;;;;;21.20;43.74;96500.38;4951284;28;20653;-25
2023/11/29 06:25:34;;;;;;;3.40;3.20;;;;;;;21.23;44.07;96505.53;4952805;28;20212;-25
2023/11/29 06:28:01;;;;;;;3.63;3.27;;;;;;;21.23;44.29;96510.63;4950007;28;20288;-26
2023/11/29 06:30:29;;;;;;;3.70;3.40;;;;;;;21.24;44.25;96509.81;4950783;28;20319;-25
2023/11/29 06:32:56;;;;;;;3.67;3.33;;;;;;;21.25;44.48;96511.53;4953097;28;20611;-25
2023/11/29 06:35:23;;;;;;;3.13;2.93;;;;;;;21.26;44.84;96509.84;4954323;29;20691;-25
2023/11/29 06:37:50;;;;;;;2.90;2.70;;;;;;;21.27;45.14;96507.31;4955524;29;20202;-25
2023/11/29 06:40:28;;;;;;;3.57;2.67;;;;;;;21.27;45.24;96509.84;4953974;28;20234;-25
2023/11/29 06:42:54;;;;;;;3.00;2.80;;;;;;;21.27;45.46;96502.19;4947762;29;20196;-25
2023/11/29 06:45:21;;;;;;;3.23;2.93;;;;;;;21.28;45.50;96508.16;4952794;28;20204;-25
2023/11/29 06:47:47;;;;;;;2.80;2.60;;;;;;;21.28;45.52;96505.59;4953874;29;20211;-27
2023/11/29 06:50:14;;;;;;;3.40;2.43;;;;;;;21.27;45.64;96509.84;4955451;28;20231;-25
2023/11/29 06:52:42;;;;;;;3.20;2.90;;;;;;;21.28;45.89;96516.69;4942886;28;20263;-25
2023/11/29 06:55:10;;;;;;;2.90;2.63;;;;;;;21.29;45.99;96509.88;4948902;28;20209;-24
2023/11/29 06:57:37;;;;;;;2.97;2.77;;;;;;;21.30;46.05;96511.59;4948318;28;20283;-26
2023/11/29 07:00:10;;;;;;;2.67;2.47;;;;;;;21.28;46.10;96508.16;4943111;28;20560;-25
2023/11/29 07:02:39;;;;;;;2.87;2.50;;;;;;;21.30;46.19;96516.69;4949758;28;20220;-25
2023/11/29 07:05:09;;;;;;;2.47;2.27;;;;;;;21.31;46.21;96508.19;4953060;28;20698;-25
2023/11/29 07:07:37;;;;;;;2.80;2.53;;;;;;;21.29;46.34;96515.00;4952838;28;20200;-25
2023/11/29 07:10:08;;;;;;;2.50;2.37;;;;;;;21.30;46.68;96515.00;4951370;28;20228;-25
2023/11/29 07:12:34;;;;;;;2.50;2.30;;;;;;;21.30;46.78;96515.00;4949072;28;20291;-25
2023/11/29 07:15:01;;;;;;;2.20;2.00;;;;;;;21.30;46.70;96526.91;4952104;29;20204;-25
2023/11/29 07:17:28;;;;;;;2.30;2.20;;;;;;;21.22;46.93;96503.81;4952047;28;20635;-26
2023/11/29 07:19:55;;;;;;;2.20;2.10;;;;;;;21.32;47.14;96522.72;4952253;28;20219;-25
2023/11/29 07:22:24;;;;;;;2.60;2.40;;;;;;;21.32;46.92;96527.81;4947712;28;20575;-25
2023/11/29 07:24:52;;;;;;;2.93;2.67;;;;;;;21.32;46.93;96520.16;4949742;29;20215;-25
2023/11/29 07:27:19;;;;;;;2.80;2.60;;;;;;;21.31;47.17;96524.38;4949537;29;20215;-25
2023/11/29 07:29:46;;;;;;;2.87;2.67;;;;;;;21.32;47.13;96515.88;4947936;29;20228;-25
2023/11/29 07:32:14;;;;;;;2.93;2.63;;;;;;;21.32;47.12;96525.25;4948490;28;20346;-26
2023/11/29 07:34:44;;;;;;;3.50;2.70;;;;;;;21.32;47.25;96528.66;4945005;28;20208;-26
2023/11/29 07:37:11;;;;;;;3.87;2.70;;;;;;;21.33;47.04;96524.41;4949590;28;20204;-26
2023/11/29 07:39:38;;;;;;;4.07;3.20;;;;;;;21.33;47.01;96524.41;4948869;28;20205;-24
2023/11/29 07:42:04;;;;;;;4.20;3.17;;;;;;;21.32;47.16;96528.66;4951632;28;20766;-26
2023/11/29 07:44:31;;;;;;;4.53;3.60;;;;;;;21.32;47.20;96530.38;4942674;28;20216;-25
2023/11/29 07:46:57;;;;;;;4.00;3.13;;;;;;;21.33;47.01;96538.06;4948908;28;20208;-25
2023/11/29 07:49:24;;;;;;;3.73;3.23;;;;;;;21.32;47.25;96533.75;4948071;28;20283;-24
2023/11/29 07:51:51;;;;;;;6.73;3.60;;;;;;;21.33;47.19;96534.63;4944327;28;20224;-25
2023/11/29 07:54:17;;;;;;;5.17;3.70;;;;;;;21.33;47.08;96525.28;4949347;28;20273;-25
2023/11/29 07:56:45;;;;;;;5.63;3.90;;;;;;;21.33;47.23;96532.94;4949554;28;20278;-26
2023/11/29 07:59:12;;;;;;;5.87;3.80;;;;;;;21.34;47.32;96523.56;4949208;28;20201;-24
2023/11/29 08:01:39;;;;;;;5.97;4.03;;;;;;;21.34;47.29;96526.13;4950373;28;20224;-25
2023/11/29 08:04:06;;;;;;;6.33;3.90;;;;;;;21.34;47.42;96526.13;4942970;28;20216;-25
2023/11/29 08:06:33;;;;;;;6.53;3.80;;;;;;;21.34;47.22;96519.31;4948697;28;20303;-25
2023/11/29 08:09:00;;;;;;;4.83;3.83;;;;;;;21.34;47.27;96511.66;4951190;28;20204;-25
2023/11/29 08:11:27;;;;;;;5.37;4.03;;;;;;;21.34;47.54;96511.66;4948619;28;20236;-25
2023/11/29 08:13:54;;;;;;;6.70;4.43;;;;;;;21.26;47.22;96499.63;4949151;28;20622;-26
2023/11/29 08:16:21;;;;;;;6.37;4.27;;;;;;;21.33;47.35;96499.72;4947657;28;20267;-26
2023/11/29 08:18:47;;;;;;;5.50;4.10;;;;;;;21.34;47.19;96498.00;4949549;28;20200;-25
2023/11/29 08:21:14;;;;;;;7.40;4.57;;;;;;;21.34;47.32;96501.44;4950185;28;20235;-27
2023/11/29 08:23:41;;;;;;;6.23;4.53;;;;;;;21.35;47.21;96499.75;4948796;28;20200;-25
2023/11/29 08:26:07;;;;;;;6.83;4.70;;;;;;;21.33;47.52;96488.63;4948937;29;20701;-24
2023/11/29 08:28:34;;;;;;;6.17;4.23;;;;;;;21.35;47.53;96499.75;4947084;28;20251;-25
2023/11/29 08:31:00;;;;;;;9.17;4.47;;;;;;;21.34;47.18;96501.44;4946497;28;20229;-26
2023/11/29 08:33:28;;;;;;;6.90;4.47;;;;;;;21.34;47.57;96504.00;4944591;28;20232;-25
2023/11/29 08:35:55;;;;;;;7.37;4.83;;;;;;;21.35;47.25;96500.59;4944905;28;20227;-25
2023/11/29 08:38:23;;;;;;;7.80;4.93;;;;;;;21.34;47.23;96508.22;4944840;28;20295;-25
2023/11/29 08:40:50;;;;;;;6.73;4.77;;;;;;;21.34;47.24;96503.13;4950265;28;20217;-26
2023/11/29 08:43:17;;;;;;;8.40;5.10;;;;;;;21.34;47.07;96509.09;4948325;28;20335;-25
2023/11/29 08:45:49;;;;;;;7.07;4.90;;;;;;;21.33;47.06;96506.53;4950073;29;20204;-25
2023/11/29 08:48:16;;;;;;;8.30;5.07;;;;;;;21.34;47.24;96513.34;4960400;28;20312;-26
2023/11/29 08:50:43;;;;;;;8.20;4.83;;;;;;;21.34;47.40;96514.22;4943037;28;20235;-25
2023/11/29 08:53:09;;;;;;;6.93;4.93;;;;;;;21.34;47.32;96516.75;4948444;28;20219;-25
2023/11/29 08:55:42;;;;;;;7.67;5.07;;;;;;;21.34;47.37;96519.31;4947258;28;20243;-25
2023/11/29 08:58:09;;;;;;;10.07;5.17;;;;;;;21.34;47.26;96516.75;4945420;28;20256;-25
2023/11/29 09:00:36;;;;;;;8.20;5.23;;;;;;;21.34;47.41;96524.44;4948011;28;20225;-25
2023/11/29 09:03:03;;;;;;;8.87;5.50;;;;;;;21.34;47.33;96519.31;4941674;28;20201;-26
2023/11/29 09:05:30;;;;;;;7.20;4.80;;;;;;;21.35;47.26;96515.91;4941361;28;20208;-22
2023/11/29 09:07:57;;;;;;;9.00;4.87;;;;;;;21.35;47.22;96522.75;4949854;28;20204;-26
2023/11/29 09:10:23;;;;;;;8.20;5.53;;;;;;;21.15;47.24;96490.94;4947569;28;20232;-24
2023/11/29 09:12:50;;;;;;;8.50;5.40;;;;;;;21.36;47.47;96519.34;4949358;28;20620;-25
2023/11/29 09:15:16;;;;;;;7.87;5.17;;;;;;;21.37;47.54;96521.03;4948976;28;20770;-25
2023/11/29 09:17:45;;;;;;;8.80;5.27;;;;;;;21.24;46.57;96508.94;4949420;28;20743;-25
2023/11/29 09:20:13;;;;;;;7.63;5.53;;;;;;;21.33;46.54;96517.63;4954143;28;20668;-25
2023/11/29 09:22:39;;;;;;;6.87;5.07;;;;;;;21.33;46.30;96504.84;4950188;28;20207;-36
2023/11/29 09:25:06;;;;;;;7.87;5.80;;;;;;;21.32;46.29;96505.66;4950236;28;20268;-31
2023/11/29 09:27:33;;;;;;;7.23;5.37;;;;;;;21.05;46.27;96466.94;4950682;28;20212;-27
2023/11/29 09:30:00;;;;;;;6.40;5.07;;;;;;;21.32;46.67;96510.75;4950356;28;20519;-30
2023/11/29 09:32:27;;;;;;;10.67;5.70;;;;;;;21.31;45.95;96506.50;4950681;28;20212;-26
2023/11/29 09:34:54;;;;;;;9.23;5.67;;;;;;;21.32;45.95;96507.38;4945189;28;20271;-26
2023/11/29 09:37:20;;;;;;;7.20;5.27;;;;;;;21.32;45.82;96509.94;4948995;28;20208;-32
2023/11/29 09:39:48;;;;;;;6.87;5.13;;;;;;;21.32;46.15;96508.22;4949383;28;20204;-29
2023/11/29 09:42:15;;;;;;;7.77;5.17;;;;;;;21.31;46.04;96509.06;4950809;28;20282;-27
2023/11/29 09:44:43;;;;;;;10.57;5.40;;;;;;;21.32;46.39;96504.81;4945860;28;20691;-26
2023/11/29 09:47:10;;;;;;;8.53;5.27;;;;;;;21.32;46.14;96504.81;4948211;29;20208;-28
2023/11/29 09:49:36;;;;;;;6.57;4.93;;;;;;;21.31;46.08;96508.19;4955287;28;20776;-29
2023/11/29 09:52:04;;;;;;;7.20;5.33;;;;;;;21.32;46.21;96515.03;4926966;29;20644;-28
2023/11/29 09:54:31;;;;;;;7.63;5.47;;;;;;;21.31;46.42;96509.06;4946637;28;20546;-26
2023/11/29 09:56:57;;;;;;;9.37;5.43;;;;;;;21.32;46.21;96509.94;4947259;29;20240;-29
2023/11/29 09:59:24;;;;;;;7.70;5.30;;;;;;;21.32;46.62;96500.53;4949573;28;20268;-27
2023/11/29 10:01:51;;;;;;;8.20;5.43;;;;;;;21.32;46.58;96497.97;4954610;28;20300;-28
2023/11/29 10:04:18;;;;;;;8.03;5.23;;;;;;;21.32;46.45;96485.22;4955731;28;20204;-28
2023/11/29 10:06:44;;;;;;;8.03;5.57;;;;;;;21.32;46.57;96487.75;4949316;28;20208;-27
2023/11/29 10:09:12;;;;;;;8.37;5.93;;;;;;;21.32;46.65;96482.66;4944687;28;20651;-26
2023/11/29 10:11:43;;;;;;;10.60;5.47;;;;;;;21.33;46.82;96488.63;4944042;28;20237;-27
2023/11/29 10:14:10;;;;;;;7.83;4.97;;;;;;;21.33;46.89;96486.94;4947305;28;20288;-31
2023/11/29 10:16:36;;;;;;;8.30;5.10;;;;;;;21.33;46.57;96484.41;4946881;28;20239;-31
2023/11/29 10:19:05;;;;;;;7.33;5.10;;;;;;;21.33;46.66;96473.28;4945803;28;20200;-26
2023/11/29 10:21:32;;;;;;;9.03;5.67;;;;;;;21.33;46.98;96469.06;4948900;28;20774;-28
2023/11/29 10:23:59;;;;;;;6.83;4.90;;;;;;;21.33;46.84;96450.28;4946549;28;20219;-37
2023/11/29 10:26:25;;;;;;;6.43;5.00;;;;;;;21.33;46.63;96448.63;4948271;28;20411;-31
2023/11/29 10:28:53;;;;;;;7.80;5.57;;;;;;;21.34;46.67;96455.44;4947937;28;20208;-26
2023/11/29 10:31:21;;;;;;;7.20;4.87;;;;;;;21.34;46.72;96459.66;4943789;29;20232;-27
2023/11/29 10:33:48;;;;;;;5.87;4.47;;;;;;;21.34;46.55;96457.13;4951312;28;20211;-31
2023/11/29 10:36:14;;;;;;;7.47;5.37;;;;;;;21.31;47.00;96451.97;4934351;29;20222;-29
2023/11/29 10:39:03;;;;;;;6.77;4.93;;;;;;;21.33;46.96;96450.28;4935242;28;20259;-26
2023/11/29 10:41:29;;;;;;;9.53;5.20;;;;;;;21.32;46.95;96443.47;4950719;28;20243;-27
2023/11/29 10:43:57;;;;;;;7.23;5.67;;;;;;;21.33;47.36;96451.16;4934709;28;20201;-28
2023/11/29 10:46:30;;;;;;;6.77;4.57;;;;;;;21.32;47.09;96446.03;4951554;28;20629;-31
2023/11/29 10:49:30;;;;;;;9.57;5.03;;;;;;;21.33;47.10;96440.94;4942981;28;20302;-30
2023/11/29 10:51:56;;;;;;;6.50;4.83;;;;;;;21.34;46.96;96441.78;4950200;28;20581;-28
2023/11/29 10:54:23;;;;;;;7.77;5.50;;;;;;;21.33;47.18;96429.84;4951988;28;20299;-30
2023/11/29 10:57:06;;;;;;;7.77;5.10;;;;;;;21.34;47.30;96434.97;4946433;28;20205;-27
2023/11/29 10:59:33;;;;;;;7.30;5.10;;;;;;;21.34;47.30;96431.56;4950218;28;20216;-27
2023/11/29 11:02:00;;;;;;;6.70;4.50;;;;;;;21.34;47.27;96441.78;4952840;28;20605;-28
2023/11/29 11:04:34;;;;;;;7.33;5.00;;;;;;;21.34;47.06;96429.00;4951015;28;20454;-27
2023/11/29 11:07:02;;;;;;;5.17;4.10;;;;;;;21.33;47.14;96433.28;4951502;28;20208;-27
2023/11/29 11:09:36;;;;;;;6.27;4.53;;;;;;;21.33;46.83;96428.16;4951591;28;20204;-37
2023/11/29 11:12:04;;;;;;;8.20;4.83;;;;;;;21.32;46.99;96423.88;4943047;28;20323;-31
2023/11/29 11:14:33;;;;;;;6.27;4.83;;;;;;;21.33;47.01;96425.63;4951428;28;20655;-26
2023/11/29 11:17:09;;;;;;;7.37;5.00;;;;;;;21.33;46.76;96432.41;4952091;29;20204;-31
2023/11/29 11:19:36;;;;;;;8.67;5.33;;;;;;;21.32;47.24;96426.44;4947212;28;20212;-31
2023/11/29 11:22:09;;;;;;;5.87;4.50;;;;;;;21.33;47.42;96415.41;4945725;28;20228;-29
2023/11/29 11:24:54;;;;;;;5.90;4.53;;;;;;;21.33;47.40;96417.06;4949193;28;20212;-28
2023/11/29 11:27:37;;;;;;;5.60;4.67;;;;;;;21.33;47.24;96422.19;4958785;28;20672;-29
2023/11/29 11:30:17;;;;;;;5.87;4.40;;;;;;;21.34;47.34;96413.66;4945015;28;20269;-31
2023/11/29 11:32:53;;;;;;;5.67;4.80;;;;;;;21.34;47.37;96409.44;4947246;28;20841;-36
2023/11/29 11:35:21;;;;;;;6.47;4.77;;;;;;;21.35;47.36;96410.31;4945515;28;20212;-26